createdAt,value
2018-04-12T00:00:59.541Z,100730.08
2018-04-12T00:03:27.954Z,100717.16
2018-04-12T00:05:56.304Z,100726.19
2018-04-12T00:08:24.611Z,100722.59
2018-04-12T00:10:53.692Z,100727.34
2018-04-12T00:13:23.174Z,100717.16
2018-04-12T00:15:51.489Z,100717.45
2018-04-12T00:18:20.668Z,100718.50
2018-04-12T00:20:49.002Z,100719.42
2018-04-12T00:23:17.331Z,100712.13
2018-04-12T00:25:45.648Z,100704.20
2018-04-12T00:28:14.741Z,100704.44
2018-04-12T00:30:43.816Z,100706.98
2018-04-12T00:33:12.122Z,100700.09
2018-04-12T00:35:41.192Z,100701.03
2018-04-12T00:38:09.549Z,100701.45
2018-04-12T00:40:37.855Z,100693.73
2018-04-12T00:43:06.856Z,100690.55
2018-04-12T00:45:35.149Z,100690.56
2018-04-12T00:48:04.232Z,100693.84
2018-04-12T00:50:32.541Z,100693.92
2018-04-12T00:53:01.620Z,100694.33
2018-04-12T00:55:29.943Z,100692.80
2018-04-12T00:57:58.259Z,100697.73
2018-04-12T01:00:26.604Z,100684.48
2018-04-12T01:02:54.923Z,100689.11
2018-04-12T01:05:23.256Z,100688.79
2018-04-12T01:07:52.365Z,100687.44
2018-04-12T01:10:20.748Z,100680.58
2018-04-12T01:12:49.054Z,100680.66
2018-04-12T01:15:17.362Z,100673.08
2018-04-12T01:17:45.662Z,100670.06
2018-04-12T01:20:14.784Z,100668.83
2018-04-12T01:22:43.102Z,100674.46
2018-04-12T01:25:12.048Z,100678.34
2018-04-12T01:27:40.365Z,100679.88
2018-04-12T01:30:08.685Z,100677.81
2018-04-12T01:32:36.982Z,100675.55
2018-04-12T01:35:06.072Z,100678.75
2018-04-12T01:37:35.243Z,100676.18
2018-04-12T01:40:03.561Z,100676.14
2018-04-12T01:42:32.620Z,100678.98
2018-04-12T01:45:00.937Z,100675.41
2018-04-12T01:47:30.045Z,100679.70
2018-04-12T01:49:59.159Z,100665.67
2018-04-12T01:52:27.499Z,100665.81
2018-04-12T01:54:55.815Z,100657.48
2018-04-12T01:57:24.113Z,100652.80
2018-04-12T01:59:52.402Z,100652.07
2018-04-12T02:02:20.726Z,100658.70
2018-04-12T02:04:49.057Z,100651.85
2018-04-12T02:07:17.376Z,100660.12
2018-04-12T02:09:45.702Z,100661.02
2018-04-12T02:12:14.017Z,100655.08
2018-04-12T02:14:42.337Z,100655.09
2018-04-12T02:17:11.531Z,100656.02
2018-04-12T02:19:39.851Z,100661.34
2018-04-12T02:22:08.246Z,100666.36
2018-04-12T02:24:36.547Z,100658.00
2018-04-12T02:27:04.839Z,100668.06
2018-04-12T02:29:33.155Z,100663.32
2018-04-12T02:32:02.265Z,100650.41
2018-04-12T02:34:30.592Z,100644.30
2018-04-12T02:36:58.889Z,100641.53
2018-04-12T02:39:27.217Z,100646.05
2018-04-12T02:41:55.525Z,100642.38
2018-04-12T02:44:23.824Z,100648.81
2018-04-12T02:46:52.126Z,100642.56
2018-04-12T02:49:21.200Z,100644.22
2018-04-12T02:51:49.597Z,100643.17
2018-04-12T02:54:17.922Z,100642.75
2018-04-12T02:56:46.241Z,100638.35
2018-04-12T02:59:14.544Z,100638.55
2018-04-12T03:01:42.900Z,100635.34
2018-04-12T03:04:11.224Z,100629.39
2018-04-12T03:06:40.288Z,100629.36
2018-04-12T03:09:08.596Z,100623.25
2018-04-12T03:11:37.674Z,100622.81
2018-04-12T03:14:05.985Z,100626.95
2018-04-12T03:16:35.070Z,100620.19
2018-04-12T03:19:04.134Z,100618.83
2018-04-12T03:21:32.471Z,100625.66
2018-04-12T03:24:00.778Z,100614.77
2018-04-12T03:26:29.076Z,100619.97
2018-04-12T03:28:57.377Z,100621.41
2018-04-12T03:31:25.690Z,100620.97
2018-04-12T03:33:54.002Z,100618.57
2018-04-12T03:36:22.526Z,100608.11
2018-04-12T03:38:50.852Z,100600.23
2018-04-12T03:41:19.149Z,100599.41
2018-04-12T03:43:47.465Z,100602.06
2018-04-12T03:46:15.771Z,100598.90
2018-04-12T03:48:44.958Z,100602.16
2018-04-12T03:51:13.917Z,100598.20
2018-04-12T03:53:42.998Z,100598.68
2018-04-12T03:56:11.301Z,100587.91
2018-04-12T03:58:39.595Z,100591.80
2018-04-12T04:01:07.934Z,100592.15
2018-04-12T04:03:36.399Z,100589.39
2018-04-12T04:06:05.505Z,100590.91
2018-04-12T04:08:33.793Z,100581.67
2018-04-12T04:11:02.128Z,100578.78
2018-04-12T04:13:30.469Z,100575.55
2018-04-12T04:16:16.560Z,100581.06
2018-04-12T04:19:02.750Z,100564.66
2018-04-12T04:21:31.050Z,100565.81
2018-04-12T04:23:59.344Z,100563.45
2018-04-12T04:26:28.512Z,100558.22
2018-04-12T04:28:56.801Z,100550.65
2018-04-12T04:31:25.125Z,100543.99
2018-04-12T04:33:54.221Z,100543.17
2018-04-12T04:36:23.287Z,100547.42
2018-04-12T04:38:51.618Z,100540.59
2018-04-12T04:41:19.934Z,100538.11
2018-04-12T04:43:48.235Z,100531.77
2018-04-12T04:46:16.552Z,100532.50
2018-04-12T04:48:45.619Z,100535.06
2018-04-12T04:51:13.933Z,100534.97
2018-04-12T04:53:43.029Z,100528.72
2018-04-12T04:56:12.091Z,100531.41
2018-04-12T04:58:40.383Z,100535.54
2018-04-12T05:01:08.707Z,100536.20
2018-04-12T05:03:37.024Z,100544.66
2018-04-12T05:06:05.311Z,100549.41
2018-04-12T05:08:33.622Z,100543.71
2018-04-12T05:11:02.705Z,100548.45
2018-04-12T05:13:31.013Z,100549.94
2018-04-12T05:16:00.091Z,100551.80
2018-04-12T05:18:28.410Z,100562.16
2018-04-12T05:20:56.741Z,100566.26
2018-04-12T05:23:25.145Z,100559.01
2018-04-12T05:25:54.215Z,100561.35
2018-04-12T05:28:22.553Z,100557.78
2018-04-12T05:30:50.871Z,100560.12
2018-04-12T05:33:19.184Z,100558.38
2018-04-12T05:35:48.273Z,100555.91
2018-04-12T05:38:18.367Z,100551.88
2018-04-12T05:40:46.687Z,100551.47
2018-04-12T05:43:15.755Z,100556.06
2018-04-12T05:45:44.057Z,100557.50
2018-04-12T05:48:12.393Z,100557.68
2018-04-12T05:50:40.708Z,100553.36
2018-04-12T05:53:09.022Z,100549.88
2018-04-12T05:55:37.318Z,100552.71
2018-04-12T05:58:05.636Z,100551.58
2018-04-12T06:00:33.942Z,100536.55
2018-04-12T06:03:02.264Z,100546.80
2018-04-12T06:05:30.623Z,100538.58
2018-04-12T06:07:58.941Z,100534.11
2018-04-12T06:10:27.311Z,100531.16
2018-04-12T06:12:55.623Z,100527.80
2018-04-12T06:15:23.917Z,100524.03
2018-04-12T06:17:52.219Z,100528.34
2018-04-12T06:20:21.324Z,100526.75
2018-04-12T06:22:50.467Z,100511.76
2018-04-12T06:25:18.801Z,100504.46
2018-04-12T06:27:47.893Z,100504.03
2018-04-12T06:30:16.992Z,100492.56
2018-04-12T06:32:46.095Z,100492.47
2018-04-12T06:35:15.243Z,100499.27
2018-04-12T06:37:43.601Z,100491.22
2018-04-12T06:40:11.915Z,100497.51
2018-04-12T06:42:40.221Z,100501.25
2018-04-12T06:45:08.525Z,100515.29
2018-04-12T06:47:36.859Z,100511.25
2018-04-12T06:50:05.242Z,100510.89
2018-04-12T06:52:33.593Z,100522.25
2018-04-12T06:55:01.913Z,100514.87
2018-04-12T06:57:30.214Z,100509.83
2018-04-12T06:59:58.546Z,100506.31
2018-04-12T07:02:26.844Z,100501.97
2018-04-12T07:04:55.177Z,100501.67
2018-04-12T07:07:24.255Z,100496.95
2018-04-12T07:09:52.552Z,100498.86
2018-04-12T07:12:21.540Z,100496.64
2018-04-12T07:14:50.853Z,100494.87
2018-04-12T07:17:19.937Z,100493.77
2018-04-12T07:19:49.032Z,100496.74
2018-04-12T07:22:17.352Z,100494.36
2018-04-12T07:24:45.661Z,100500.09
2018-04-12T07:27:13.982Z,100502.25
2018-04-12T07:29:43.077Z,100504.48
2018-04-12T07:32:12.154Z,100502.25
2018-04-12T07:34:40.571Z,100493.91
2018-04-12T07:37:09.262Z,100502.32
2018-04-12T07:39:38.341Z,100501.87
2018-04-12T07:42:06.660Z,100500.94
2018-04-12T07:44:34.961Z,100506.13
2018-04-12T07:47:03.303Z,100506.55
2018-04-12T07:49:32.378Z,100493.55
2018-04-12T07:52:01.445Z,100495.03
2018-04-12T07:54:29.767Z,100493.71
2018-04-12T07:56:58.852Z,100495.41
2018-04-12T07:59:27.174Z,100492.09
2018-04-12T08:01:55.492Z,100496.55
2018-04-12T08:04:23.812Z,100492.33
2018-04-12T08:06:52.909Z,100489.71
2018-04-12T08:09:21.994Z,100490.02
2018-04-12T08:11:50.308Z,100486.44
2018-04-12T08:14:18.619Z,100482.53
2018-04-12T08:16:46.974Z,100489.09
2018-04-12T08:19:15.281Z,100478.39
2018-04-12T08:21:43.734Z,100475.25
2018-04-12T08:24:12.029Z,100476.50
2018-04-12T08:26:40.440Z,100472.66
2018-04-12T08:29:08.779Z,100470.90
2018-04-12T08:31:37.095Z,100479.06
2018-04-12T08:34:05.419Z,100474.98
2018-04-12T08:36:34.530Z,100454.75
2018-04-12T08:39:03.683Z,100463.05
2018-04-12T08:41:31.995Z,100459.08
2018-04-12T08:44:00.321Z,100454.37
2018-04-12T08:46:28.639Z,100450.02
2018-04-12T08:48:56.975Z,100456.22
2018-04-12T08:51:25.287Z,100431.62
2018-04-12T08:53:53.668Z,100433.00
2018-04-12T08:56:21.983Z,100429.17
2018-04-12T08:58:50.299Z,100428.01
2018-04-12T09:01:18.669Z,100432.45
2018-04-12T09:03:46.940Z,100425.44
2018-04-12T09:06:16.012Z,100426.44
2018-04-12T09:08:44.363Z,100425.88
2018-04-12T09:11:12.694Z,100426.11
2018-04-12T09:13:41.758Z,100420.98
2018-04-12T09:16:10.874Z,100420.39
2018-04-12T09:18:39.168Z,100425.16
2018-04-12T09:21:07.468Z,100432.11
2018-04-12T09:23:36.572Z,100412.63
2018-04-12T09:26:04.878Z,100424.57
2018-04-12T09:28:33.199Z,100416.87
2018-04-12T09:31:01.529Z,100417.73
2018-04-12T09:33:29.862Z,100414.88
2018-04-12T09:35:58.191Z,100416.37
2018-04-12T09:38:26.532Z,100413.19
2018-04-12T09:40:54.853Z,100413.59
2018-04-12T09:43:23.179Z,100410.97
2018-04-12T09:45:53.455Z,100407.96
2018-04-12T09:48:21.780Z,100400.37
2018-04-12T09:50:50.106Z,100398.47
2018-04-12T09:53:18.421Z,100387.04
2018-04-12T09:55:46.730Z,100398.66
2018-04-12T09:58:15.787Z,100385.54
2018-04-12T10:00:59.085Z,100384.70
2018-04-12T10:03:35.651Z,100383.70
2018-04-12T10:06:06.256Z,100377.33
2018-04-12T10:08:35.610Z,100384.64
2018-04-12T10:11:04.114Z,100372.64
2018-04-12T10:13:32.429Z,100376.11
2018-04-12T10:16:01.519Z,100366.30
2018-04-12T10:18:29.839Z,100363.47
2018-04-12T10:20:58.971Z,100359.63
2018-04-12T10:23:27.312Z,100370.51
2018-04-12T10:25:56.409Z,100369.99
2018-04-12T10:28:25.503Z,100367.27
2018-04-12T10:30:57.365Z,100353.53
2018-04-12T10:33:40.910Z,100365.31
2018-04-12T10:36:14.978Z,100365.84
2018-04-12T10:38:43.318Z,100365.03
2018-04-12T10:41:14.136Z,100369.85
2018-04-12T10:43:45.528Z,100357.31
2018-04-12T10:46:14.254Z,100350.48
2018-04-12T10:48:43.180Z,100354.27
2018-04-12T10:51:11.496Z,100344.50
2018-04-12T10:53:39.866Z,100349.77
2018-04-12T10:56:08.213Z,100350.16
2018-04-12T10:58:36.571Z,100345.85
2018-04-12T11:01:04.959Z,100336.95
2018-04-12T11:03:34.619Z,100338.34
2018-04-12T11:06:03.861Z,100334.26
2018-04-12T11:08:34.153Z,100332.83
2018-04-12T11:11:05.815Z,100330.73
2018-04-12T11:13:34.330Z,100321.70
2018-04-12T11:16:02.668Z,100321.59
2018-04-12T11:18:31.071Z,100315.90
2018-04-12T11:20:59.315Z,100313.80
2018-04-12T11:23:27.701Z,100303.11
2018-04-12T11:25:56.764Z,100311.89
2018-04-12T11:28:25.635Z,100299.34
2018-04-12T11:31:08.300Z,100305.17
2018-04-12T11:33:39.094Z,100308.02
2018-04-12T11:36:08.420Z,100306.31
2018-04-12T11:38:37.509Z,100303.55
2018-04-12T11:41:06.362Z,100300.12
2018-04-12T11:43:38.802Z,100304.22
2018-04-12T11:46:08.387Z,100294.66
2018-04-12T11:48:37.902Z,100293.31
2018-04-12T11:51:06.216Z,100297.67
2018-04-12T11:53:34.533Z,100291.63
2018-04-12T11:56:02.860Z,100291.66
2018-04-12T11:58:31.495Z,100291.25
2018-04-12T12:00:59.933Z,100290.02
2018-04-12T12:03:30.215Z,100290.54
2018-04-12T12:05:58.540Z,100288.80
2018-04-12T12:08:27.632Z,100284.70
2018-04-12T12:10:56.823Z,100291.27
2018-04-12T12:13:25.346Z,100286.72
2018-04-12T12:15:53.677Z,100279.81
2018-04-12T12:18:22.014Z,100283.83
2018-04-12T12:20:50.329Z,100284.70
2018-04-12T12:23:18.809Z,100285.85
2018-04-12T12:25:47.135Z,100284.41
2018-04-12T12:28:16.250Z,100292.78
2018-04-12T12:30:45.993Z,100291.37
2018-04-12T12:33:14.305Z,100291.63
2018-04-12T12:35:42.643Z,100287.41
2018-04-12T12:38:10.969Z,100289.33
2018-04-12T12:40:39.287Z,100288.81
2018-04-12T12:43:07.604Z,100284.25
2018-04-12T12:45:35.928Z,100291.27
2018-04-12T12:48:05.018Z,100295.02
2018-04-12T12:50:33.408Z,100301.56
2018-04-12T12:53:02.484Z,100300.16
2018-04-12T12:55:30.799Z,100296.34
2018-04-12T12:57:59.885Z,100287.50
2018-04-12T13:00:37.132Z,100287.17
2018-04-12T13:03:06.369Z,100297.62
2018-04-12T13:05:35.504Z,100304.34
2018-04-12T13:08:03.848Z,100295.61
2018-04-12T13:10:32.194Z,100288.92
2018-04-12T13:13:00.544Z,100299.55
2018-04-12T13:15:28.926Z,100296.05
2018-04-12T13:17:57.265Z,100299.94
2018-04-12T13:20:25.593Z,100310.46
2018-04-12T13:22:53.902Z,100325.20
2018-04-12T13:25:22.272Z,100323.59
2018-04-12T13:27:50.812Z,100319.90
2018-04-12T13:30:19.279Z,100307.03
2018-04-12T13:32:47.755Z,100301.31
2018-04-12T13:35:16.065Z,100293.30
2018-04-12T13:37:45.902Z,100291.84
2018-04-12T13:40:14.227Z,100299.38
2018-04-12T13:42:42.595Z,100302.44
2018-04-12T13:45:10.911Z,100299.05
2018-04-12T13:47:39.222Z,100287.69
2018-04-12T13:50:07.528Z,100276.52
2018-04-12T13:52:47.872Z,100272.62
2018-04-12T13:55:20.059Z,100276.54
2018-04-12T13:57:48.405Z,100265.82
2018-04-12T14:00:19.212Z,100264.80
2018-04-12T14:02:47.941Z,100259.95
2018-04-12T14:05:16.254Z,100264.00
2018-04-12T14:07:44.558Z,100259.71
2018-04-12T14:10:12.982Z,100255.67
2018-04-12T14:12:41.307Z,100253.94
2018-04-12T14:15:09.617Z,100258.34
2018-04-12T14:17:41.573Z,100252.65
2018-04-12T14:20:09.896Z,100252.05
2018-04-12T14:22:38.604Z,100244.82
2018-04-12T14:25:06.944Z,100243.87
2018-04-12T14:27:36.475Z,100241.15
2018-04-12T14:30:04.816Z,100248.25
2018-04-12T14:32:33.308Z,100236.03
2018-04-12T14:35:02.404Z,100234.25
2018-04-12T14:37:31.165Z,100226.91
2018-04-12T14:39:59.839Z,100227.96
2018-04-12T14:42:28.339Z,100222.97
2018-04-12T14:44:56.681Z,100215.89
2018-04-12T14:47:25.089Z,100222.06
2018-04-12T14:49:53.503Z,100225.88
2018-04-12T14:52:21.813Z,100221.19
2018-04-12T14:54:50.176Z,100217.98
2018-04-12T14:57:18.520Z,100216.19
2018-04-12T14:59:46.851Z,100203.55
2018-04-12T15:02:15.798Z,100197.93
2018-04-12T15:04:44.121Z,100204.55
2018-04-12T15:07:13.213Z,100210.66
2018-04-12T15:09:41.542Z,100212.33
2018-04-12T15:12:09.895Z,100212.20
2018-04-12T15:14:38.975Z,100208.70
2018-04-12T15:17:07.311Z,100208.05
2018-04-12T15:19:35.637Z,100212.49
2018-04-12T15:22:04.011Z,100222.69
2018-04-12T15:24:32.840Z,100230.13
2018-04-12T15:27:01.959Z,100228.52
2018-04-12T15:29:30.320Z,100239.36
2018-04-12T15:31:59.500Z,100239.60
2018-04-12T15:34:27.796Z,100249.05
2018-04-12T15:36:56.877Z,100261.16
2018-04-12T15:39:25.196Z,100261.00
2018-04-12T15:41:53.497Z,100269.47
2018-04-12T15:44:21.796Z,100262.00
2018-04-12T15:46:50.419Z,100271.09
2018-04-12T15:49:19.550Z,100267.31
2018-04-12T15:51:47.857Z,100262.10
2018-04-12T15:54:16.155Z,100247.26
2018-04-12T15:56:44.461Z,100230.27
2018-04-12T15:59:12.818Z,100214.16
2018-04-12T16:01:41.154Z,100213.42
2018-04-12T16:04:09.587Z,100229.92
2018-04-12T16:06:37.883Z,100238.22
2018-04-12T16:09:06.230Z,100230.50
2018-04-12T16:11:35.935Z,100223.87
2018-04-12T16:14:04.297Z,100230.75
2018-04-12T16:16:33.346Z,100240.56
2018-04-12T16:19:01.678Z,100253.58
2018-04-12T16:21:30.241Z,100253.94
2018-04-12T16:23:59.427Z,100245.88
2018-04-12T16:26:27.789Z,100235.19
2018-04-12T16:28:56.128Z,100222.34
2018-04-12T16:31:24.451Z,100215.45
2018-04-12T16:33:52.771Z,100203.91
2018-04-12T16:36:21.916Z,100197.91
2018-04-12T16:38:50.222Z,100195.00
2018-04-12T16:41:18.529Z,100196.42
2018-04-12T16:43:47.601Z,100191.52
2018-04-12T16:46:15.923Z,100192.73
2018-04-12T16:48:44.279Z,100189.56
2018-04-12T16:51:12.589Z,100188.65
2018-04-12T16:53:40.909Z,100185.73
2018-04-12T16:56:09.237Z,100192.66
2018-04-12T16:58:38.302Z,100198.75
2018-04-12T17:01:06.624Z,100200.46
2018-04-12T17:03:34.979Z,100186.28
2018-04-12T17:06:03.308Z,100193.17
2018-04-12T17:08:31.632Z,100188.72
2018-04-12T17:11:00.244Z,100190.84
2018-04-12T17:13:30.100Z,100193.53
2018-04-12T17:15:58.419Z,100191.88
2018-04-12T17:18:28.266Z,100192.45
2018-04-12T17:20:58.685Z,100204.44
2018-04-12T17:23:28.348Z,100208.78
2018-04-12T17:25:56.802Z,100196.64
2018-04-12T17:28:25.099Z,100198.75
2018-04-12T17:30:53.406Z,100216.06
2018-04-12T17:33:21.718Z,100221.33
2018-04-12T17:35:50.068Z,100228.20
2018-04-12T17:38:25.629Z,100225.84
2018-04-12T17:40:55.911Z,100229.83
2018-04-12T17:43:24.771Z,100239.73
2018-04-12T17:45:57.085Z,100250.83
2018-04-12T17:48:25.494Z,100239.77
2018-04-12T17:50:56.140Z,100236.72
2018-04-12T17:53:30.658Z,100233.06
2018-04-12T17:56:01.446Z,100226.66
2018-04-12T17:58:59.099Z,100227.35
2018-04-12T18:01:30.018Z,100223.73
2018-04-12T18:04:02.764Z,100233.24
2018-04-12T18:06:36.199Z,100228.88
2018-04-12T18:09:07.646Z,100227.66
2018-04-12T18:11:42.377Z,100234.24
2018-04-12T18:14:23.183Z,100240.45
2018-04-12T18:17:16.193Z,100250.89
2018-04-12T18:19:50.823Z,100254.64
2018-04-12T18:22:19.296Z,100259.41
2018-04-12T18:24:48.655Z,100257.55
2018-04-12T18:27:29.040Z,100256.55
2018-04-12T18:29:58.384Z,100251.11
2018-04-12T18:32:27.074Z,100252.61
2018-04-12T18:34:55.660Z,100253.19
2018-04-12T18:37:24.186Z,100258.81
2018-04-12T18:39:52.774Z,100252.92
2018-04-12T18:42:21.445Z,100246.05
2018-04-12T18:44:49.990Z,100252.65
2018-04-12T18:47:18.379Z,100264.44
2018-04-12T18:49:47.461Z,100258.84
2018-04-12T18:52:16.227Z,100260.45
2018-04-12T18:54:44.552Z,100277.41
2018-04-12T18:57:14.136Z,100269.50
2018-04-12T18:59:42.862Z,100275.37
2018-04-12T19:02:11.992Z,100278.86
2018-04-12T19:04:40.353Z,100283.28
2018-04-12T19:07:12.426Z,100278.94
2018-04-12T19:09:44.946Z,100298.09
2018-04-12T19:12:13.270Z,100292.58
2018-04-12T19:14:41.580Z,100292.91
2018-04-12T19:17:10.131Z,100293.29
2018-04-12T19:19:39.219Z,100292.45
2018-04-12T19:22:08.291Z,100284.06
2018-04-12T19:24:37.550Z,100287.12
2018-04-12T19:27:06.110Z,100286.57
2018-04-12T19:29:54.410Z,100282.01
2018-04-12T19:32:22.796Z,100273.58
2018-04-12T19:34:51.202Z,100276.30
2018-04-12T19:37:19.535Z,100263.74
2018-04-12T19:39:47.868Z,100273.92
2018-04-12T19:42:16.203Z,100271.55
2018-04-12T19:44:44.563Z,100278.72
2018-04-12T19:47:12.965Z,100280.44
2018-04-12T19:49:41.399Z,100287.02
2018-04-12T19:52:10.173Z,100276.39
2018-04-12T19:54:38.577Z,100280.45
2018-04-12T19:57:07.018Z,100278.27
2018-04-12T19:59:35.346Z,100286.40
2018-04-12T20:02:04.491Z,100282.09
2018-04-12T20:04:32.870Z,100280.45
2018-04-12T20:07:01.255Z,100279.47
2018-04-12T20:09:29.594Z,100285.75
2018-04-12T20:11:57.908Z,100286.38
2018-04-12T20:14:26.215Z,100284.01
2018-04-12T20:16:54.521Z,100278.77
2018-04-12T20:19:22.855Z,100282.08
2018-04-12T20:21:51.164Z,100291.14
2018-04-12T20:24:19.494Z,100294.14
2018-04-12T20:26:48.583Z,100286.75
2018-04-12T20:29:16.962Z,100291.06
2018-04-12T20:31:46.043Z,100290.73
2018-04-12T20:34:14.349Z,100293.81
2018-04-12T20:36:42.813Z,100290.02
2018-04-12T20:39:11.112Z,100285.00
2018-04-12T20:41:40.194Z,100293.13
2018-04-12T20:44:08.639Z,100297.25
2018-04-12T20:46:37.740Z,100301.90
2018-04-12T20:49:06.121Z,100306.13
2018-04-12T20:51:34.462Z,100311.59
2018-04-12T20:54:03.550Z,100308.69
2018-04-12T20:56:31.912Z,100310.52
2018-04-12T20:59:00.209Z,100307.25
2018-04-12T21:01:29.270Z,100308.17
2018-04-12T21:03:57.610Z,100307.66
2018-04-12T21:06:25.946Z,100310.14
2018-04-12T21:08:54.447Z,100314.16
2018-04-12T21:11:22.774Z,100319.28
2018-04-12T21:13:51.093Z,100322.77
2018-04-12T21:16:19.406Z,100318.47
2018-04-12T21:18:47.716Z,100317.19
2018-04-12T21:21:16.036Z,100318.96
2018-04-12T21:23:44.366Z,100313.64
2018-04-12T21:26:13.492Z,100314.02
2018-04-12T21:28:42.769Z,100321.39
2018-04-12T21:31:11.224Z,100315.74
2018-04-12T21:33:47.391Z,100311.45
2018-04-12T21:36:15.711Z,100319.28
2018-04-12T21:38:46.277Z,100318.95
2018-04-12T21:41:15.260Z,100327.03
2018-04-12T21:43:44.050Z,100331.70
2018-04-12T21:46:12.502Z,100330.34
2018-04-12T21:48:44.635Z,100330.31
2018-04-12T21:51:13.002Z,100342.05
2018-04-12T21:53:41.868Z,100335.22
2018-04-12T21:56:10.308Z,100346.06
2018-04-12T21:58:38.620Z,100349.37
2018-04-12T22:01:07.143Z,100342.44
2018-04-12T22:03:35.432Z,100348.50
2018-04-12T22:06:03.756Z,100347.98
2018-04-12T22:08:32.827Z,100353.42
2018-04-12T22:11:01.244Z,100353.73
2018-04-12T22:13:30.365Z,100357.94
2018-04-12T22:16:01.001Z,100362.14
2018-04-12T22:18:46.927Z,100359.28
2018-04-12T22:21:20.051Z,100358.16
2018-04-12T22:24:02.677Z,100352.09
2018-04-12T22:26:34.877Z,100358.05
2018-04-12T22:29:03.250Z,100350.91
2018-04-12T22:31:31.564Z,100336.64
2018-04-12T22:33:59.876Z,100347.89
2018-04-12T22:36:29.005Z,100340.40
2018-04-12T22:38:57.316Z,100346.04
2018-04-12T22:41:25.618Z,100347.16
2018-04-12T22:43:53.931Z,100352.61
2018-04-12T22:46:23.173Z,100349.67
2018-04-12T22:48:51.530Z,100351.84
2018-04-12T22:51:19.835Z,100354.72
2018-04-12T22:53:48.163Z,100357.11
2018-04-12T22:56:16.608Z,100352.60
2018-04-12T22:58:44.952Z,100355.69
2018-04-12T23:01:14.254Z,100363.78
2018-04-12T23:03:42.601Z,100369.42
2018-04-12T23:06:10.937Z,100371.23
2018-04-12T23:08:39.281Z,100380.52
2018-04-12T23:11:07.587Z,100370.61
2018-04-12T23:13:35.899Z,100376.20
2018-04-12T23:16:04.281Z,100377.16
2018-04-12T23:18:32.618Z,100379.81
2018-04-12T23:21:01.696Z,100384.80
2018-04-12T23:23:30.133Z,100383.59
2018-04-12T23:25:58.438Z,100393.61
2018-04-12T23:28:26.786Z,100389.78
2018-04-12T23:30:55.159Z,100395.66
2018-04-12T23:33:24.251Z,100398.59
2018-04-12T23:35:53.513Z,100402.42
2018-04-12T23:38:21.844Z,100399.86
2018-04-12T23:40:50.932Z,100398.03
2018-04-12T23:43:20.023Z,100399.82
2018-04-12T23:45:48.357Z,100404.47
2018-04-12T23:48:16.664Z,100400.63
2018-04-12T23:50:44.975Z,100410.02
2018-04-12T23:53:14.053Z,100404.33
2018-04-12T23:55:42.375Z,100407.09
2018-04-12T23:58:10.679Z,100413.17
